sensor_id;sensor_type;location;lat;lon;timestamp;P1;durP1;ratioP1;P2;durP2;ratioP2
55146;SDS011;41039;49.830;23.988;2023-01-19T00:41:17;11.40;;;6.90;;
55146;SDS011;41039;49.830;23.988;2023-01-19T00:43:42;7.60;;;5.70;;
55146;SDS011;41039;49.830;23.988;2023-01-19T00:46:07;8.50;;;5.97;;
55146;SDS011;41039;49.830;23.988;2023-01-19T00:48:33;9.90;;;6.40;;
55146;SDS011;41039;49.830;23.988;2023-01-19T00:50:58;12.00;;;6.60;;
55146;SDS011;41039;49.830;23.988;2023-01-19T00:53:24;11.75;;;6.45;;
55146;SDS011;41039;49.830;23.988;2023-01-19T00:55:49;11.48;;;6.25;;
55146;SDS011;41039;49.830;23.988;2023-01-19T00:58:14;9.27;;;5.80;;
55146;SDS011;41039;49.830;23.988;2023-01-19T01:00:39;10.32;;;6.30;;
55146;SDS011;41039;49.830;23.988;2023-01-19T01:03:05;9.30;;;5.55;;
55146;SDS011;41039;49.830;23.988;2023-01-19T01:05:30;9.27;;;6.53;;
55146;SDS011;41039;49.830;23.988;2023-01-19T01:07:55;9.65;;;6.20;;
55146;SDS011;41039;49.830;23.988;2023-01-19T01:10:22;9.75;;;6.40;;
55146;SDS011;41039;49.830;23.988;2023-01-19T01:12:48;8.73;;;5.55;;
55146;SDS011;41039;49.830;23.988;2023-01-19T01:15:14;9.20;;;5.78;;
55146;SDS011;41039;49.830;23.988;2023-01-19T01:17:40;10.95;;;6.18;;
55146;SDS011;41039;49.830;23.988;2023-01-19T01:20:12;8.15;;;5.30;;
55146;SDS011;41039;49.830;23.988;2023-01-19T01:22:40;10.30;;;5.93;;
55146;SDS011;41039;49.830;23.988;2023-01-19T01:25:09;10.18;;;6.53;;
55146;SDS011;41039;49.830;23.988;2023-01-19T01:27:34;7.18;;;5.22;;
55146;SDS011;41039;49.830;23.988;2023-01-19T01:29:59;9.70;;;5.85;;
55146;SDS011;41039;49.830;23.988;2023-01-19T01:32:25;10.70;;;6.45;;
55146;SDS011;41039;49.830;23.988;2023-01-19T01:34:50;8.85;;;6.03;;
55146;SDS011;41039;49.830;23.988;2023-01-19T01:37:15;14.23;;;6.45;;
55146;SDS011;41039;49.830;23.988;2023-01-19T01:39:40;9.45;;;5.05;;
55146;SDS011;41039;49.830;23.988;2023-01-19T01:42:13;8.70;;;5.13;;
55146;SDS011;41039;49.830;23.988;2023-01-19T01:44:43;6.93;;;4.53;;
55146;SDS011;41039;49.830;23.988;2023-01-19T01:47:24;8.27;;;5.47;;
55146;SDS011;41039;49.830;23.988;2023-01-19T01:49:51;8.13;;;4.85;;
55146;SDS011;41039;49.830;23.988;2023-01-19T01:52:17;9.63;;;5.30;;
55146;SDS011;41039;49.830;23.988;2023-01-19T01:54:43;9.85;;;6.10;;
55146;SDS011;41039;49.830;23.988;2023-01-19T01:57:08;8.00;;;5.18;;
55146;SDS011;41039;49.830;23.988;2023-01-19T01:59:38;7.82;;;4.55;;
55146;SDS011;41039;49.830;23.988;2023-01-19T02:02:05;7.45;;;4.38;;
55146;SDS011;41039;49.830;23.988;2023-01-19T02:04:51;7.60;;;4.72;;
55146;SDS011;41039;49.830;23.988;2023-01-19T02:08:01;7.53;;;4.97;;
55146;SDS011;41039;49.830;23.988;2023-01-19T02:10:24;8.35;;;4.88;;
55146;SDS011;41039;49.830;23.988;2023-01-19T02:13:08;7.55;;;4.50;;
55146;SDS011;41039;49.830;23.988;2023-01-19T02:15:52;11.23;;;6.60;;
55146;SDS011;41039;49.830;23.988;2023-01-19T02:18:18;14.32;;;7.45;;
55146;SDS011;41039;49.830;23.988;2023-01-19T02:21:32;10.73;;;7.32;;
55146;SDS011;41039;49.830;23.988;2023-01-19T02:25:56;9.52;;;5.60;;
55146;SDS011;41039;49.830;23.988;2023-01-19T02:28:22;9.75;;;6.15;;
55146;SDS011;41039;49.830;23.988;2023-01-19T02:30:49;8.77;;;5.18;;
55146;SDS011;41039;49.830;23.988;2023-01-19T02:33:14;10.30;;;4.93;;
55146;SDS011;41039;49.830;23.988;2023-01-19T02:35:39;6.53;;;3.83;;
55146;SDS011;41039;49.830;23.988;2023-01-19T02:38:05;7.55;;;3.95;;
55146;SDS011;41039;49.830;23.988;2023-01-19T02:40:31;5.68;;;3.47;;
55146;SDS011;41039;49.830;23.988;2023-01-19T02:42:56;6.93;;;4.05;;
55146;SDS011;41039;49.830;23.988;2023-01-19T02:45:25;8.35;;;5.47;;
55146;SDS011;41039;49.830;23.988;2023-01-19T02:47:51;10.30;;;6.82;;
55146;SDS011;41039;49.830;23.988;2023-01-19T02:50:36;9.32;;;5.57;;
55146;SDS011;41039;49.830;23.988;2023-01-19T02:55:38;9.40;;;4.78;;
55146;SDS011;41039;49.830;23.988;2023-01-19T03:00:52;8.13;;;4.85;;
55146;SDS011;41039;49.830;23.988;2023-01-19T03:03:32;6.15;;;3.80;;
55146;SDS011;41039;49.830;23.988;2023-01-19T03:15:58;6.43;;;4.25;;
55146;SDS011;41039;49.830;23.988;2023-01-19T03:18:26;8.75;;;5.38;;
55146;SDS011;41039;49.830;23.988;2023-01-19T03:20:54;9.88;;;6.00;;
55146;SDS011;41039;49.830;23.988;2023-01-19T03:23:20;6.32;;;4.35;;
55146;SDS011;41039;49.830;23.988;2023-01-19T03:25:47;5.97;;;3.97;;
55146;SDS011;41039;49.830;23.988;2023-01-19T03:28:13;11.30;;;7.68;;
55146;SDS011;41039;49.830;23.988;2023-01-19T03:30:41;18.13;;;11.82;;
55146;SDS011;41039;49.830;23.988;2023-01-19T03:33:18;12.77;;;9.63;;
55146;SDS011;41039;49.830;23.988;2023-01-19T03:35:47;12.32;;;8.93;;
55146;SDS011;41039;49.830;23.988;2023-01-19T03:38:14;12.60;;;8.60;;
55146;SDS011;41039;49.830;23.988;2023-01-19T03:40:40;11.68;;;7.97;;
55146;SDS011;41039;49.830;23.988;2023-01-19T03:43:06;10.23;;;6.65;;
55146;SDS011;41039;49.830;23.988;2023-01-19T03:45:32;8.43;;;6.13;;
55146;SDS011;41039;49.830;23.988;2023-01-19T03:47:57;19.27;;;14.38;;
55146;SDS011;41039;49.830;23.988;2023-01-19T03:50:24;10.18;;;6.55;;
55146;SDS011;41039;49.830;23.988;2023-01-19T03:53:03;8.98;;;5.72;;
55146;SDS011;41039;49.830;23.988;2023-01-19T03:55:29;7.57;;;4.60;;
55146;SDS011;41039;49.830;23.988;2023-01-19T03:57:54;6.47;;;3.88;;
55146;SDS011;41039;49.830;23.988;2023-01-19T04:00:19;5.90;;;4.32;;
55146;SDS011;41039;49.830;23.988;2023-01-19T04:02:45;6.75;;;4.50;;
55146;SDS011;41039;49.830;23.988;2023-01-19T04:05:10;6.75;;;4.07;;
55146;SDS011;41039;49.830;23.988;2023-01-19T04:07:35;10.27;;;6.43;;
55146;SDS011;41039;49.830;23.988;2023-01-19T04:10:01;7.25;;;4.03;;
55146;SDS011;41039;49.830;23.988;2023-01-19T04:12:26;17.90;;;7.65;;
55146;SDS011;41039;49.830;23.988;2023-01-19T04:14:51;12.93;;;9.07;;
55146;SDS011;41039;49.830;23.988;2023-01-19T04:17:16;11.00;;;9.60;;
55146;SDS011;41039;49.830;23.988;2023-01-19T04:19:42;7.80;;;6.43;;
55146;SDS011;41039;49.830;23.988;2023-01-19T04:22:07;7.05;;;4.32;;
55146;SDS011;41039;49.830;23.988;2023-01-19T04:24:32;5.78;;;3.58;;
55146;SDS011;41039;49.830;23.988;2023-01-19T04:26:57;8.18;;;4.22;;
55146;SDS011;41039;49.830;23.988;2023-01-19T04:29:23;9.63;;;7.57;;
55146;SDS011;41039;49.830;23.988;2023-01-19T04:31:48;12.82;;;9.18;;
55146;SDS011;41039;49.830;23.988;2023-01-19T04:34:13;13.50;;;8.73;;
55146;SDS011;41039;49.830;23.988;2023-01-19T04:36:38;9.02;;;6.55;;
55146;SDS011;41039;49.830;23.988;2023-01-19T04:39:04;7.93;;;5.60;;
55146;SDS011;41039;49.830;23.988;2023-01-19T04:41:29;7.22;;;4.47;;
55146;SDS011;41039;49.830;23.988;2023-01-19T04:43:55;7.85;;;5.03;;
55146;SDS011;41039;49.830;23.988;2023-01-19T04:46:20;7.38;;;4.38;;
55146;SDS011;41039;49.830;23.988;2023-01-19T04:48:45;7.00;;;4.60;;
55146;SDS011;41039;49.830;23.988;2023-01-19T04:51:11;11.07;;;5.95;;
55146;SDS011;41039;49.830;23.988;2023-01-19T04:53:36;9.10;;;5.13;;
55146;SDS011;41039;49.830;23.988;2023-01-19T04:56:01;9.45;;;5.15;;
55146;SDS011;41039;49.830;23.988;2023-01-19T04:58:26;10.85;;;4.60;;
55146;SDS011;41039;49.830;23.988;2023-01-19T05:00:51;7.97;;;3.20;;
55146;SDS011;41039;49.830;23.988;2023-01-19T05:03:17;6.32;;;3.03;;
55146;SDS011;41039;49.830;23.988;2023-01-19T05:05:43;5.85;;;2.97;;
55146;SDS011;41039;49.830;23.988;2023-01-19T05:08:08;6.88;;;3.13;;
55146;SDS011;41039;49.830;23.988;2023-01-19T05:10:34;4.82;;;3.00;;
55146;SDS011;41039;49.830;23.988;2023-01-19T05:13:00;8.25;;;4.50;;
55146;SDS011;41039;49.830;23.988;2023-01-19T05:15:25;6.72;;;3.78;;
55146;SDS011;41039;49.830;23.988;2023-01-19T05:17:50;5.07;;;3.90;;
55146;SDS011;41039;49.830;23.988;2023-01-19T05:20:16;4.90;;;3.53;;
55146;SDS011;41039;49.830;23.988;2023-01-19T05:22:47;8.18;;;3.75;;
55146;SDS011;41039;49.830;23.988;2023-01-19T05:25:12;5.70;;;3.42;;
55146;SDS011;41039;49.830;23.988;2023-01-19T05:27:37;4.88;;;3.03;;
55146;SDS011;41039;49.830;23.988;2023-01-19T05:30:03;4.70;;;2.88;;
55146;SDS011;41039;49.830;23.988;2023-01-19T05:32:29;5.50;;;3.53;;
55146;SDS011;41039;49.830;23.988;2023-01-19T05:34:54;4.93;;;3.30;;
55146;SDS011;41039;49.830;23.988;2023-01-19T05:37:19;4.93;;;3.28;;
55146;SDS011;41039;49.830;23.988;2023-01-19T05:39:45;6.97;;;3.00;;
55146;SDS011;41039;49.830;23.988;2023-01-19T05:42:10;7.22;;;3.50;;
55146;SDS011;41039;49.830;23.988;2023-01-19T05:44:35;3.53;;;2.38;;
55146;SDS011;41039;49.830;23.988;2023-01-19T05:47:00;5.00;;;2.80;;
55146;SDS011;41039;49.830;23.988;2023-01-19T05:49:25;6.22;;;2.90;;
55146;SDS011;41039;49.830;23.988;2023-01-19T05:51:51;5.50;;;3.58;;
55146;SDS011;41039;49.830;23.988;2023-01-19T05:54:16;5.50;;;3.25;;
55146;SDS011;41039;49.830;23.988;2023-01-19T05:56:41;4.50;;;2.15;;
55146;SDS011;41039;49.830;23.988;2023-01-19T05:59:06;6.20;;;2.90;;
55146;SDS011;41039;49.830;23.988;2023-01-19T06:01:32;5.10;;;2.65;;
55146;SDS011;41039;49.830;23.988;2023-01-19T06:03:59;5.38;;;3.30;;
55146;SDS011;41039;49.830;23.988;2023-01-19T06:06:24;3.65;;;2.47;;
55146;SDS011;41039;49.830;23.988;2023-01-19T06:08:49;10.75;;;2.90;;
55146;SDS011;41039;49.830;23.988;2023-01-19T06:11:15;6.22;;;2.88;;
55146;SDS011;41039;49.830;23.988;2023-01-19T06:13:40;5.50;;;2.80;;
55146;SDS011;41039;49.830;23.988;2023-01-19T06:16:05;6.45;;;3.28;;
55146;SDS011;41039;49.830;23.988;2023-01-19T06:18:31;4.82;;;2.95;;
55146;SDS011;41039;49.830;23.988;2023-01-19T06:20:56;4.22;;;2.92;;
55146;SDS011;41039;49.830;23.988;2023-01-19T06:23:24;5.13;;;3.08;;
55146;SDS011;41039;49.830;23.988;2023-01-19T06:25:50;9.90;;;3.40;;
55146;SDS011;41039;49.830;23.988;2023-01-19T06:28:15;4.32;;;3.28;;
55146;SDS011;41039;49.830;23.988;2023-01-19T06:30:40;4.68;;;2.80;;
55146;SDS011;41039;49.830;23.988;2023-01-19T06:33:06;4.93;;;2.70;;
55146;SDS011;41039;49.830;23.988;2023-01-19T06:35:31;3.65;;;2.15;;
55146;SDS011;41039;49.830;23.988;2023-01-19T06:37:56;4.55;;;2.40;;
55146;SDS011;41039;49.830;23.988;2023-01-19T06:40:21;4.43;;;2.00;;
55146;SDS011;41039;49.830;23.988;2023-01-19T06:42:47;5.68;;;2.60;;
55146;SDS011;41039;49.830;23.988;2023-01-19T06:45:12;4.80;;;3.20;;
55146;SDS011;41039;49.830;23.988;2023-01-19T06:47:37;4.93;;;2.50;;
55146;SDS011;41039;49.830;23.988;2023-01-19T06:50:03;6.03;;;2.38;;
55146;SDS011;41039;49.830;23.988;2023-01-19T06:52:28;3.10;;;2.00;;
55146;SDS011;41039;49.830;23.988;2023-01-19T06:54:53;13.15;;;11.57;;
55146;SDS011;41039;49.830;23.988;2023-01-19T06:57:18;5.65;;;4.05;;
55146;SDS011;41039;49.830;23.988;2023-01-19T06:59:44;4.45;;;3.00;;
55146;SDS011;41039;49.830;23.988;2023-01-19T07:02:09;5.22;;;3.50;;
55146;SDS011;41039;49.830;23.988;2023-01-19T07:04:38;7.75;;;4.82;;
55146;SDS011;41039;49.830;23.988;2023-01-19T07:07:03;7.18;;;4.47;;
55146;SDS011;41039;49.830;23.988;2023-01-19T07:09:28;7.60;;;5.80;;
55146;SDS011;41039;49.830;23.988;2023-01-19T07:11:53;8.40;;;4.82;;
55146;SDS011;41039;49.830;23.988;2023-01-19T07:14:19;9.27;;;5.70;;
55146;SDS011;41039;49.830;23.988;2023-01-19T07:16:45;8.55;;;5.88;;
55146;SDS011;41039;49.830;23.988;2023-01-19T07:19:10;11.82;;;7.68;;
55146;SDS011;41039;49.830;23.988;2023-01-19T07:21:35;9.93;;;6.88;;
55146;SDS011;41039;49.830;23.988;2023-01-19T07:24:00;8.75;;;6.18;;
55146;SDS011;41039;49.830;23.988;2023-01-19T07:26:26;9.50;;;5.65;;
55146;SDS011;41039;49.830;23.988;2023-01-19T07:28:52;6.38;;;4.53;;
55146;SDS011;41039;49.830;23.988;2023-01-19T07:31:17;8.05;;;5.45;;
55146;SDS011;41039;49.830;23.988;2023-01-19T07:33:43;5.25;;;4.50;;
55146;SDS011;41039;49.830;23.988;2023-01-19T07:36:08;8.07;;;5.60;;
55146;SDS011;41039;49.830;23.988;2023-01-19T07:38:33;6.30;;;4.78;;
55146;SDS011;41039;49.830;23.988;2023-01-19T07:41:00;8.48;;;5.60;;
55146;SDS011;41039;49.830;23.988;2023-01-19T07:43:25;6.95;;;5.00;;
55146;SDS011;41039;49.830;23.988;2023-01-19T07:45:50;6.40;;;4.75;;
55146;SDS011;41039;49.830;23.988;2023-01-19T07:48:16;6.95;;;5.32;;
55146;SDS011;41039;49.830;23.988;2023-01-19T07:50:41;7.13;;;5.10;;
55146;SDS011;41039;49.830;23.988;2023-01-19T07:53:07;6.85;;;4.97;;
55146;SDS011;41039;49.830;23.988;2023-01-19T07:55:33;10.40;;;8.30;;
55146;SDS011;41039;49.830;23.988;2023-01-19T07:57:58;10.10;;;5.50;;
55146;SDS011;41039;49.830;23.988;2023-01-19T08:00:23;8.57;;;5.80;;
55146;SDS011;41039;49.830;23.988;2023-01-19T08:02:52;7.18;;;5.57;;
55146;SDS011;41039;49.830;23.988;2023-01-19T08:05:22;7.55;;;5.28;;
55146;SDS011;41039;49.830;23.988;2023-01-19T08:07:47;9.00;;;5.15;;
55146;SDS011;41039;49.830;23.988;2023-01-19T08:10:13;8.20;;;5.63;;
55146;SDS011;41039;49.830;23.988;2023-01-19T08:12:39;6.88;;;5.10;;
55146;SDS011;41039;49.830;23.988;2023-01-19T08:15:06;9.07;;;5.82;;
55146;SDS011;41039;49.830;23.988;2023-01-19T08:17:31;9.32;;;6.03;;
55146;SDS011;41039;49.830;23.988;2023-01-19T08:19:56;7.90;;;5.13;;
55146;SDS011;41039;49.830;23.988;2023-01-19T08:22:21;6.10;;;4.88;;
55146;SDS011;41039;49.830;23.988;2023-01-19T08:24:47;9.90;;;6.22;;
55146;SDS011;41039;49.830;23.988;2023-01-19T08:27:12;7.85;;;5.90;;
55146;SDS011;41039;49.830;23.988;2023-01-19T08:29:37;10.35;;;7.15;;
55146;SDS011;41039;49.830;23.988;2023-01-19T08:32:02;9.00;;;6.88;;
55146;SDS011;41039;49.830;23.988;2023-01-19T08:34:28;11.35;;;6.28;;
55146;SDS011;41039;49.830;23.988;2023-01-19T08:36:55;11.55;;;6.88;;
55146;SDS011;41039;49.830;23.988;2023-01-19T08:39:20;9.50;;;6.68;;
55146;SDS011;41039;49.830;23.988;2023-01-19T08:41:47;9.85;;;6.88;;
55146;SDS011;41039;49.830;23.988;2023-01-19T08:44:13;8.82;;;5.95;;
55146;SDS011;41039;49.830;23.988;2023-01-19T08:46:38;8.00;;;5.85;;
55146;SDS011;41039;49.830;23.988;2023-01-19T08:49:03;12.30;;;7.45;;
55146;SDS011;41039;49.830;23.988;2023-01-19T08:51:28;11.10;;;6.68;;
55146;SDS011;41039;49.830;23.988;2023-01-19T08:53:53;7.88;;;5.63;;
55146;SDS011;41039;49.830;23.988;2023-01-19T08:56:19;8.75;;;6.25;;
55146;SDS011;41039;49.830;23.988;2023-01-19T08:58:44;11.93;;;6.75;;
55146;SDS011;41039;49.830;23.988;2023-01-19T09:01:10;10.50;;;7.32;;
55146;SDS011;41039;49.830;23.988;2023-01-19T09:03:38;10.60;;;7.63;;
55146;SDS011;41039;49.830;23.988;2023-01-19T09:06:04;11.18;;;6.85;;
55146;SDS011;41039;49.830;23.988;2023-01-19T09:08:29;20.50;;;11.73;;
55146;SDS011;41039;49.830;23.988;2023-01-19T09:10:54;24.65;;;15.40;;
55146;SDS011;41039;49.830;23.988;2023-01-19T09:13:20;17.55;;;10.00;;
55146;SDS011;41039;49.830;23.988;2023-01-19T09:15:45;15.35;;;10.88;;
55146;SDS011;41039;49.830;23.988;2023-01-19T09:18:12;13.80;;;9.18;;
55146;SDS011;41039;49.830;23.988;2023-01-19T09:20:40;12.55;;;8.27;;
55146;SDS011;41039;49.830;23.988;2023-01-19T09:23:07;13.05;;;8.52;;
55146;SDS011;41039;49.830;23.988;2023-01-19T09:25:34;17.45;;;8.82;;
55146;SDS011;41039;49.830;23.988;2023-01-19T09:27:59;14.00;;;8.82;;
55146;SDS011;41039;49.830;23.988;2023-01-19T09:30:26;17.77;;;11.00;;
55146;SDS011;41039;49.830;23.988;2023-01-19T09:32:51;17.65;;;9.10;;
55146;SDS011;41039;49.830;23.988;2023-01-19T09:35:17;16.73;;;10.82;;
55146;SDS011;41039;49.830;23.988;2023-01-19T09:37:45;15.98;;;9.88;;
55146;SDS011;41039;49.830;23.988;2023-01-19T09:40:11;15.10;;;8.55;;
55146;SDS011;41039;49.830;23.988;2023-01-19T09:45:05;17.50;;;9.45;;
55146;SDS011;41039;49.830;23.988;2023-01-19T09:47:32;15.52;;;9.93;;
55146;SDS011;41039;49.830;23.988;2023-01-19T09:50:04;14.95;;;9.13;;
55146;SDS011;41039;49.830;23.988;2023-01-19T09:52:30;14.35;;;10.10;;
55146;SDS011;41039;49.830;23.988;2023-01-19T09:54:58;16.02;;;9.57;;
55146;SDS011;41039;49.830;23.988;2023-01-19T09:57:24;14.60;;;9.80;;
55146;SDS011;41039;49.830;23.988;2023-01-19T09:59:50;15.55;;;9.68;;
55146;SDS011;41039;49.830;23.988;2023-01-19T10:04:57;18.77;;;10.90;;
55146;SDS011;41039;49.830;23.988;2023-01-19T10:10:11;21.40;;;12.52;;
55146;SDS011;41039;49.830;23.988;2023-01-19T10:12:40;19.38;;;11.02;;
55146;SDS011;41039;49.830;23.988;2023-01-19T10:20:10;23.00;;;13.40;;
55146;SDS011;41039;49.830;23.988;2023-01-19T10:22:37;22.35;;;12.93;;
55146;SDS011;41039;49.830;23.988;2023-01-19T10:25:03;25.83;;;13.63;;
55146;SDS011;41039;49.830;23.988;2023-01-19T10:27:31;36.15;;;17.27;;
55146;SDS011;41039;49.830;23.988;2023-01-19T10:29:58;57.63;;;25.05;;
55146;SDS011;41039;49.830;23.988;2023-01-19T10:32:26;34.13;;;19.55;;
55146;SDS011;41039;49.830;23.988;2023-01-19T10:34:52;37.42;;;19.42;;
55146;SDS011;41039;49.830;23.988;2023-01-19T10:39:53;35.55;;;18.83;;
55146;SDS011;41039;49.830;23.988;2023-01-19T10:42:18;21.60;;;13.93;;
55146;SDS011;41039;49.830;23.988;2023-01-19T10:44:44;30.75;;;15.70;;
55146;SDS011;41039;49.830;23.988;2023-01-19T10:47:14;21.42;;;12.23;;
55146;SDS011;41039;49.830;23.988;2023-01-19T10:49:40;45.47;;;15.52;;
55146;SDS011;41039;49.830;23.988;2023-01-19T10:54:52;23.08;;;13.68;;
55146;SDS011;41039;49.830;23.988;2023-01-19T10:57:25;21.77;;;14.00;;
55146;SDS011;41039;49.830;23.988;2023-01-19T10:59:57;26.73;;;14.75;;
55146;SDS011;41039;49.830;23.988;2023-01-19T11:02:31;25.00;;;14.02;;
55146;SDS011;41039;49.830;23.988;2023-01-19T11:05:00;25.35;;;12.85;;
55146;SDS011;41039;49.830;23.988;2023-01-19T11:07:30;21.23;;;13.50;;
55146;SDS011;41039;49.830;23.988;2023-01-19T11:12:40;33.45;;;17.73;;
55146;SDS011;41039;49.830;23.988;2023-01-19T11:15:20;27.98;;;14.15;;
55146;SDS011;41039;49.830;23.988;2023-01-19T11:17:45;26.88;;;15.02;;
55146;SDS011;41039;49.830;23.988;2023-01-19T11:20:22;28.88;;;16.50;;
55146;SDS011;41039;49.830;23.988;2023-01-19T11:22:47;29.40;;;17.42;;
55146;SDS011;41039;49.830;23.988;2023-01-19T11:25:20;29.25;;;17.02;;
55146;SDS011;41039;49.830;23.988;2023-01-19T11:27:47;31.33;;;18.20;;
55146;SDS011;41039;49.830;23.988;2023-01-19T11:32:39;33.58;;;18.67;;
55146;SDS011;41039;49.830;23.988;2023-01-19T11:40:15;21.73;;;12.23;;
55146;SDS011;41039;49.830;23.988;2023-01-19T11:42:40;23.55;;;12.80;;
55146;SDS011;41039;49.830;23.988;2023-01-19T11:45:13;23.90;;;14.63;;
55146;SDS011;41039;49.830;23.988;2023-01-19T11:52:46;21.80;;;12.57;;
55146;SDS011;41039;49.830;23.988;2023-01-19T11:57:52;21.52;;;12.20;;
55146;SDS011;41039;49.830;23.988;2023-01-19T12:00:22;21.80;;;12.02;;
55146;SDS011;41039;49.830;23.988;2023-01-19T12:02:48;20.60;;;12.32;;
55146;SDS011;41039;49.830;23.988;2023-01-19T12:05:15;20.92;;;12.60;;
55146;SDS011;41039;49.830;23.988;2023-01-19T12:07:43;29.58;;;14.20;;
55146;SDS011;41039;49.830;23.988;2023-01-19T12:10:21;25.30;;;15.48;;
55146;SDS011;41039;49.830;23.988;2023-01-19T12:12:48;21.67;;;13.80;;
55146;SDS011;41039;49.830;23.988;2023-01-19T12:15:25;30.10;;;15.75;;
55146;SDS011;41039;49.830;23.988;2023-01-19T12:17:53;24.05;;;12.55;;
55146;SDS011;41039;49.830;23.988;2023-01-19T12:20:24;22.45;;;13.25;;
55146;SDS011;41039;49.830;23.988;2023-01-19T12:22:57;22.73;;;12.20;;
55146;SDS011;41039;49.830;23.988;2023-01-19T12:25:24;22.23;;;12.63;;
55146;SDS011;41039;49.830;23.988;2023-01-19T12:27:51;33.88;;;16.02;;
55146;SDS011;41039;49.830;23.988;2023-01-19T12:30:19;26.13;;;13.65;;
55146;SDS011;41039;49.830;23.988;2023-01-19T12:32:44;36.58;;;15.45;;
55146;SDS011;41039;49.830;23.988;2023-01-19T12:37:54;30.65;;;16.58;;
55146;SDS011;41039;49.830;23.988;2023-01-19T12:40:25;27.88;;;14.50;;
55146;SDS011;41039;49.830;23.988;2023-01-19T12:42:56;34.57;;;17.70;;
55146;SDS011;41039;49.830;23.988;2023-01-19T12:45:22;32.92;;;16.77;;
55146;SDS011;41039;49.830;23.988;2023-01-19T12:47:52;34.40;;;17.25;;
55146;SDS011;41039;49.830;23.988;2023-01-19T12:50:18;46.35;;;18.48;;
55146;SDS011;41039;49.830;23.988;2023-01-19T12:52:48;35.83;;;18.55;;
55146;SDS011;41039;49.830;23.988;2023-01-19T12:55:48;48.95;;;21.17;;
55146;SDS011;41039;49.830;23.988;2023-01-19T13:00:39;42.60;;;20.60;;
55146;SDS011;41039;49.830;23.988;2023-01-19T13:13:15;43.28;;;17.73;;
55146;SDS011;41039;49.830;23.988;2023-01-19T13:15:41;67.63;;;17.38;;
55146;SDS011;41039;49.830;23.988;2023-01-19T13:18:08;33.80;;;14.48;;
55146;SDS011;41039;49.830;23.988;2023-01-19T13:20:43;52.28;;;14.80;;
55146;SDS011;41039;49.830;23.988;2023-01-19T13:23:14;33.40;;;13.95;;
55146;SDS011;41039;49.830;23.988;2023-01-19T13:25:40;23.90;;;12.85;;
55146;SDS011;41039;49.830;23.988;2023-01-19T13:28:08;35.22;;;13.80;;
55146;SDS011;41039;49.830;23.988;2023-01-19T13:30:34;32.00;;;14.15;;
55146;SDS011;41039;49.830;23.988;2023-01-19T13:33:04;28.42;;;14.65;;
55146;SDS011;41039;49.830;23.988;2023-01-19T13:35:30;28.65;;;14.52;;
55146;SDS011;41039;49.830;23.988;2023-01-19T13:37:56;33.30;;;13.95;;
55146;SDS011;41039;49.830;23.988;2023-01-19T13:40:23;38.20;;;16.50;;
55146;SDS011;41039;49.830;23.988;2023-01-19T13:42:50;31.35;;;16.08;;
55146;SDS011;41039;49.830;23.988;2023-01-19T13:45:29;28.65;;;14.02;;
55146;SDS011;41039;49.830;23.988;2023-01-19T13:47:57;31.13;;;16.63;;
55146;SDS011;41039;49.830;23.988;2023-01-19T13:50:24;33.75;;;15.73;;
55146;SDS011;41039;49.830;23.988;2023-01-19T13:52:50;30.15;;;14.77;;
55146;SDS011;41039;49.830;23.988;2023-01-19T13:55:18;32.80;;;17.75;;
55146;SDS011;41039;49.830;23.988;2023-01-19T13:57:45;36.22;;;18.95;;
55146;SDS011;41039;49.830;23.988;2023-01-19T14:07:41;36.05;;;18.48;;
55146;SDS011;41039;49.830;23.988;2023-01-19T14:10:09;34.63;;;18.42;;
55146;SDS011;41039;49.830;23.988;2023-01-19T14:12:36;32.65;;;17.77;;
55146;SDS011;41039;49.830;23.988;2023-01-19T14:15:01;40.25;;;18.15;;
55146;SDS011;41039;49.830;23.988;2023-01-19T14:17:27;30.20;;;16.45;;
55146;SDS011;41039;49.830;23.988;2023-01-19T14:19:54;33.35;;;17.42;;
55146;SDS011;41039;49.830;23.988;2023-01-19T14:22:19;35.72;;;17.00;;
55146;SDS011;41039;49.830;23.988;2023-01-19T14:24:44;45.47;;;23.92;;
55146;SDS011;41039;49.830;23.988;2023-01-19T14:29:42;53.70;;;21.48;;
55146;SDS011;41039;49.830;23.988;2023-01-19T14:32:13;52.60;;;22.98;;
55146;SDS011;41039;49.830;23.988;2023-01-19T14:37:20;36.90;;;20.42;;
55146;SDS011;41039;49.830;23.988;2023-01-19T14:40:03;43.38;;;21.20;;
55146;SDS011;41039;49.830;23.988;2023-01-19T14:45:13;53.90;;;21.98;;
55146;SDS011;41039;49.830;23.988;2023-01-19T14:47:40;37.83;;;20.77;;
55146;SDS011;41039;49.830;23.988;2023-01-19T14:50:29;38.67;;;20.05;;
55146;SDS011;41039;49.830;23.988;2023-01-19T14:52:57;44.55;;;21.27;;
55146;SDS011;41039;49.830;23.988;2023-01-19T14:58:08;38.13;;;22.05;;
55146;SDS011;41039;49.830;23.988;2023-01-19T15:00:34;45.53;;;22.52;;
55146;SDS011;41039;49.830;23.988;2023-01-19T15:02:59;45.67;;;23.30;;
55146;SDS011;41039;49.830;23.988;2023-01-19T15:05:24;46.60;;;21.30;;
55146;SDS011;41039;49.830;23.988;2023-01-19T15:07:49;38.67;;;20.15;;
55146;SDS011;41039;49.830;23.988;2023-01-19T15:10:19;41.90;;;20.70;;
55146;SDS011;41039;49.830;23.988;2023-01-19T15:12:45;41.65;;;21.05;;
55146;SDS011;41039;49.830;23.988;2023-01-19T15:15:18;45.28;;;19.98;;
55146;SDS011;41039;49.830;23.988;2023-01-19T15:17:43;49.35;;;23.48;;
55146;SDS011;41039;49.830;23.988;2023-01-19T15:20:16;52.35;;;26.08;;
55146;SDS011;41039;49.830;23.988;2023-01-19T15:22:42;58.35;;;29.20;;
55146;SDS011;41039;49.830;23.988;2023-01-19T15:25:08;69.60;;;30.60;;
55146;SDS011;41039;49.830;23.988;2023-01-19T15:27:33;63.28;;;29.27;;
55146;SDS011;41039;49.830;23.988;2023-01-19T15:29:58;60.45;;;30.33;;
55146;SDS011;41039;49.830;23.988;2023-01-19T15:32:24;69.03;;;31.23;;
55146;SDS011;41039;49.830;23.988;2023-01-19T15:34:49;67.05;;;27.70;;
55146;SDS011;41039;49.830;23.988;2023-01-19T15:37:14;76.43;;;33.40;;
55146;SDS011;41039;49.830;23.988;2023-01-19T15:39:39;68.40;;;32.20;;
55146;SDS011;41039;49.830;23.988;2023-01-19T15:42:08;75.28;;;31.67;;
55146;SDS011;41039;49.830;23.988;2023-01-19T15:44:34;60.80;;;30.65;;
55146;SDS011;41039;49.830;23.988;2023-01-19T15:46:59;83.03;;;33.42;;
55146;SDS011;41039;49.830;23.988;2023-01-19T15:49:25;84.47;;;35.67;;
55146;SDS011;41039;49.830;23.988;2023-01-19T15:51:50;70.50;;;32.20;;
55146;SDS011;41039;49.830;23.988;2023-01-19T15:54:15;98.93;;;35.47;;
55146;SDS011;41039;49.830;23.988;2023-01-19T15:56:42;80.32;;;33.70;;
55146;SDS011;41039;49.830;23.988;2023-01-19T15:59:07;53.55;;;26.27;;
55146;SDS011;41039;49.830;23.988;2023-01-19T16:01:32;58.05;;;26.52;;
55146;SDS011;41039;49.830;23.988;2023-01-19T16:03:59;51.13;;;23.30;;
55146;SDS011;41039;49.830;23.988;2023-01-19T16:06:25;54.67;;;20.20;;
55146;SDS011;41039;49.830;23.988;2023-01-19T16:08:50;51.70;;;21.00;;
55146;SDS011;41039;49.830;23.988;2023-01-19T16:11:15;62.75;;;22.85;;
55146;SDS011;41039;49.830;23.988;2023-01-19T16:13:45;55.67;;;22.50;;
55146;SDS011;41039;49.830;23.988;2023-01-19T16:16:12;90.28;;;26.75;;
55146;SDS011;41039;49.830;23.988;2023-01-19T16:18:38;66.93;;;25.48;;
55146;SDS011;41039;49.830;23.988;2023-01-19T16:21:03;62.67;;;26.65;;
55146;SDS011;41039;49.830;23.988;2023-01-19T16:23:28;71.35;;;29.58;;
55146;SDS011;41039;49.830;23.988;2023-01-19T16:25:55;70.45;;;27.85;;
55146;SDS011;41039;49.830;23.988;2023-01-19T16:28:20;64.22;;;27.65;;